Time;durP1;ratioP1;P1;durP2;ratioP2;P2;SDS_P1;SDS_P2;PMS_P1;PMS_P2;Temp;Humidity;BMP_temperature;BMP_pressure;BME280_temperature;BME280_humidity;BME280_pressure;Samples;Min_cycle;Max_cycle;Signal;HPM_P1;HPM_P2
2023/12/05 00:00:05;;;;;;;35.10;20.30;;;4.30;99.90;;;;;;5024761;28;20203;-65
2023/12/05 00:02:31;;;;;;;30.43;21.17;;;4.40;99.90;;;;;;5018267;28;20271;-65
2023/12/05 00:04:56;;;;;;;27.20;20.03;;;4.40;99.90;;;;;;5022012;28;20537;-64
2023/12/05 00:07:23;;;;;;;27.33;18.83;;;4.40;99.90;;;;;;5023108;28;20200;-65
2023/12/05 00:09:49;;;;;;;32.10;19.77;;;4.40;99.90;;;;;;5018419;28;20171;-65
2023/12/05 00:12:15;;;;;;;26.50;18.57;;;4.40;99.90;;;;;;5013553;28;20463;-65
2023/12/05 00:14:40;;;;;;;29.40;21.20;;;4.40;99.90;;;;;;5015569;28;20287;-65
2023/12/05 00:17:06;;;;;;;25.87;19.43;;;4.40;99.90;;;;;;5012055;28;20976;-65
2023/12/05 00:19:32;;;;;;;26.07;18.53;;;4.40;99.90;;;;;;5012225;28;20177;-65
2023/12/05 00:21:58;;;;;;;28.30;19.47;;;4.50;99.90;;;;;;5016679;28;20271;-65
2023/12/05 00:24:23;;;;;;;28.70;19.77;;;4.50;99.90;;;;;;5020736;28;20627;-65
2023/12/05 00:26:49;;;;;;;29.77;20.83;;;4.50;99.90;;;;;;5015375;28;20189;-65
2023/12/05 00:29:15;;;;;;;27.60;20.97;;;4.50;99.90;;;;;;5018774;28;21287;-64
2023/12/05 00:31:41;;;;;;;30.30;20.80;;;4.40;99.90;;;;;;5021219;28;20226;-65
2023/12/05 00:34:06;;;;;;;26.00;19.83;;;4.50;99.90;;;;;;5011738;28;20459;-65
2023/12/05 00:36:32;;;;;;;29.37;20.53;;;4.50;99.90;;;;;;5017245;28;20239;-65
2023/12/05 00:38:57;;;;;;;32.07;19.63;;;4.50;99.90;;;;;;5015884;28;20176;-65
2023/12/05 00:41:25;;;;;;;27.23;19.87;;;4.50;99.90;;;;;;5017056;28;20188;-65
2023/12/05 00:43:51;;;;;;;28.90;19.00;;;4.50;99.90;;;;;;5020663;28;20697;-66
2023/12/05 00:46:17;;;;;;;29.70;19.27;;;4.50;99.90;;;;;;5014693;28;20458;-65
2023/12/05 00:48:43;;;;;;;34.70;20.20;;;4.60;99.90;;;;;;5015450;28;21304;-65
2023/12/05 00:51:08;;;;;;;25.27;19.30;;;4.60;99.90;;;;;;5016012;28;20208;-64
2023/12/05 00:53:34;;;;;;;25.73;19.53;;;4.60;99.90;;;;;;5017948;28;20292;-64
2023/12/05 00:56:00;;;;;;;28.73;19.33;;;4.50;99.90;;;;;;5016610;28;20207;-64
2023/12/05 00:58:25;;;;;;;25.50;19.43;;;4.50;99.90;;;;;;5017981;28;20664;-65
2023/12/05 01:00:51;;;;;;;28.00;19.73;;;4.50;99.90;;;;;;5022057;28;20423;-64
2023/12/05 01:03:16;;;;;;;33.20;21.23;;;4.50;99.90;;;;;;5020878;28;20228;-64
2023/12/05 01:05:43;;;;;;;22.13;18.10;;;4.50;99.90;;;;;;5023825;28;20362;-64
2023/12/05 01:08:08;;;;;;;29.30;20.03;;;4.50;99.90;;;;;;5015635;28;20200;-65
2023/12/05 01:10:34;;;;;;;29.07;19.47;;;4.60;99.90;;;;;;5016670;28;20824;-65
2023/12/05 01:13:02;;;;;;;33.50;20.20;;;4.60;99.90;;;;;;5021443;28;20228;-65
2023/12/05 01:15:27;;;;;;;27.33;19.90;;;4.50;99.90;;;;;;5017901;28;20327;-65
2023/12/05 01:17:54;;;;;;;31.27;18.93;;;4.60;99.90;;;;;;5019531;28;20435;-65
2023/12/05 01:20:20;;;;;;;30.30;21.13;;;4.60;99.90;;;;;;5018558;28;20419;-65
2023/12/05 01:22:46;;;;;;;36.57;19.97;;;4.50;99.90;;;;;;5015505;28;20692;-65
2023/12/05 01:25:11;;;;;;;31.37;21.30;;;4.50;99.90;;;;;;5020691;28;20443;-64
2023/12/05 01:27:37;;;;;;;33.07;21.30;;;4.50;99.90;;;;;;5023701;28;20180;-64
2023/12/05 01:30:04;;;;;;;28.07;20.50;;;4.50;99.90;;;;;;5019426;28;20641;-64
2023/12/05 01:32:30;;;;;;;27.60;20.17;;;4.50;99.90;;;;;;5022994;28;20240;-64
2023/12/05 01:34:56;;;;;;;31.07;19.77;;;4.60;99.90;;;;;;5021599;28;20544;-64
2023/12/05 01:37:22;;;;;;;25.27;18.70;;;4.50;99.90;;;;;;5019457;28;20307;-64
2023/12/05 01:39:48;;;;;;;26.30;19.83;;;4.60;99.90;;;;;;5021390;28;20427;-64
2023/12/05 01:42:14;;;;;;;29.67;19.07;;;4.60;99.90;;;;;;5019301;28;20493;-64
2023/12/05 01:44:39;;;;;;;22.83;17.80;;;4.60;99.90;;;;;;5021289;28;20227;-64
2023/12/05 01:47:05;;;;;;;32.77;20.40;;;4.50;99.90;;;;;;5019019;28;20498;-64
2023/12/05 01:49:35;;;;;;;25.97;17.70;;;4.50;99.90;;;;;;5018865;28;20230;-64
2023/12/05 01:52:02;;;;;;;27.93;17.10;;;4.50;99.90;;;;;;5017639;28;21244;-64
2023/12/05 01:54:31;;;;;;;27.40;19.87;;;4.50;99.90;;;;;;5016376;28;20540;-65
2023/12/05 01:56:57;;;;;;;28.20;18.93;;;4.50;99.90;;;;;;5015937;28;20431;-65
2023/12/05 01:59:25;;;;;;;25.73;19.20;;;4.50;99.90;;;;;;5014130;28;21007;-64
2023/12/05 02:01:52;;;;;;;28.03;18.27;;;4.50;99.90;;;;;;5012916;28;20431;-64
2023/12/05 02:04:18;;;;;;;24.40;18.63;;;4.50;99.90;;;;;;5018102;28;21474;-65
2023/12/05 02:06:44;;;;;;;27.80;20.00;;;4.50;99.90;;;;;;5017162;28;20779;-65
2023/12/05 02:09:11;;;;;;;24.77;18.77;;;4.40;99.90;;;;;;5009727;28;20463;-65
2023/12/05 02:11:37;;;;;;;23.90;19.10;;;4.50;99.90;;;;;;5018783;28;20435;-65
2023/12/05 02:14:05;;;;;;;24.83;18.83;;;4.50;99.90;;;;;;5020067;28;20447;-65
2023/12/05 02:17:15;;;;;;;26.73;19.73;;;4.50;99.90;;;;;;5012150;28;20505;-65
2023/12/05 02:19:43;;;;;;;26.73;19.27;;;4.50;99.90;;;;;;5016485;28;20434;-64
2023/12/05 02:22:30;;;;;;;24.00;18.40;;;4.40;99.90;;;;;;5017859;28;20419;-64
2023/12/05 02:25:18;;;;;;;28.40;19.07;;;4.40;99.90;;;;;;5016579;28;20418;-64
2023/12/05 02:27:45;;;;;;;25.40;18.07;;;4.40;99.90;;;;;;5015750;28;20442;-64
2023/12/05 02:30:14;;;;;;;22.30;17.87;;;4.40;99.90;;;;;;5015500;28;20501;-64
2023/12/05 02:32:40;;;;;;;26.67;18.00;;;4.30;99.90;;;;;;5022282;28;20956;-64
2023/12/05 02:35:06;;;;;;;29.07;18.33;;;4.30;99.90;;;;;;5019665;28;20445;-64
2023/12/05 02:37:49;;;;;;;25.37;17.43;;;4.30;99.90;;;;;;5013649;28;20173;-65
2023/12/05 02:40:25;;;;;;;22.87;17.63;;;4.30;99.90;;;;;;5017203;28;20606;-65
2023/12/05 02:42:52;;;;;;;24.63;16.87;;;4.30;99.90;;;;;;5016213;28;20613;-65
2023/12/05 02:45:19;;;;;;;25.43;18.03;;;4.40;99.90;;;;;;5018147;28;20922;-65
2023/12/05 02:47:48;;;;;;;24.27;19.03;;;4.30;99.90;;;;;;5017062;28;20558;-65
2023/12/05 02:50:16;;;;;;;24.20;17.13;;;4.30;99.90;;;;;;5020741;28;20458;-65
2023/12/05 02:52:42;;;;;;;24.17;17.80;;;4.40;99.90;;;;;;5019780;28;20478;-65
2023/12/05 02:55:08;;;;;;;22.43;16.70;;;4.40;99.90;;;;;;5018515;28;20940;-65
2023/12/05 02:57:33;;;;;;;29.83;17.67;;;4.50;99.90;;;;;;5016547;28;20654;-65
2023/12/05 02:59:59;;;;;;;21.37;15.07;;;4.50;99.90;;;;;;5020831;28;20184;-64
2023/12/05 03:02:24;;;;;;;22.57;14.80;;;4.50;99.90;;;;;;5013238;28;20203;-64
2023/12/05 03:04:50;;;;;;;26.67;17.77;;;4.50;99.90;;;;;;5015190;28;20184;-64
2023/12/05 03:07:15;;;;;;;25.03;15.63;;;4.60;99.90;;;;;;5011460;28;20210;-65
2023/12/05 03:09:41;;;;;;;25.47;16.30;;;4.50;99.90;;;;;;5020183;28;20177;-65
2023/12/05 03:12:07;;;;;;;22.83;16.40;;;4.50;99.90;;;;;;5022006;28;20214;-65
2023/12/05 03:14:32;;;;;;;21.63;14.40;;;4.60;99.90;;;;;;5015138;28;20284;-65
2023/12/05 03:16:58;;;;;;;19.43;14.30;;;4.70;99.90;;;;;;5015937;28;20482;-65
2023/12/05 03:19:24;;;;;;;16.33;12.00;;;4.70;99.90;;;;;;5013891;28;20290;-65
2023/12/05 03:21:49;;;;;;;18.80;12.53;;;4.80;99.90;;;;;;5015542;28;20556;-65
2023/12/05 03:24:15;;;;;;;20.03;12.40;;;4.90;99.90;;;;;;5016119;28;20216;-65
2023/12/05 03:26:41;;;;;;;15.63;11.57;;;5.00;99.90;;;;;;5017980;28;20190;-65
2023/12/05 03:29:06;;;;;;;17.30;12.00;;;5.10;99.90;;;;;;5013594;28;20628;-65
2023/12/05 03:31:36;;;;;;;16.10;10.20;;;5.20;99.90;;;;;;5010935;28;20538;-64
2023/12/05 03:34:02;;;;;;;11.90;9.00;;;5.20;99.90;;;;;;5011857;28;20215;-64
2023/12/05 03:36:27;;;;;;;15.33;9.10;;;5.30;99.90;;;;;;5015057;28;20473;-64
2023/12/05 03:38:53;;;;;;;14.17;9.10;;;5.40;99.90;;;;;;5015034;28;20447;-64
2023/12/05 03:41:18;;;;;;;11.93;7.90;;;5.50;99.90;;;;;;5013813;28;20227;-64
2023/12/05 03:43:44;;;;;;;10.97;6.80;;;5.50;99.90;;;;;;5016550;28;20246;-64
2023/12/05 03:46:10;;;;;;;9.07;7.13;;;5.60;99.90;;;;;;5014207;28;20199;-64
2023/12/05 03:48:36;;;;;;;9.20;6.37;;;5.60;99.90;;;;;;5016266;28;20192;-64
2023/12/05 03:51:02;;;;;;;10.00;6.67;;;5.70;99.90;;;;;;5022537;28;20184;-64
2023/12/05 03:53:28;;;;;;;9.63;5.77;;;5.80;99.90;;;;;;5015962;28;20524;-64
2023/12/05 03:55:54;;;;;;;6.73;4.80;;;5.90;99.90;;;;;;5021852;28;20917;-65
2023/12/05 03:58:19;;;;;;;6.80;5.10;;;5.90;99.90;;;;;;5015653;28;20184;-65
2023/12/05 04:00:45;;;;;;;8.63;5.20;;;5.90;99.90;;;;;;5015587;28;20227;-64
2023/12/05 04:03:11;;;;;;;7.80;5.60;;;6.00;99.90;;;;;;5018718;28;20694;-64
2023/12/05 04:05:38;;;;;;;8.67;5.37;;;6.00;99.90;;;;;;5015690;28;20925;-65
2023/12/05 04:08:04;;;;;;;6.47;4.40;;;6.10;99.90;;;;;;5011338;28;20291;-65
2023/12/05 04:10:29;;;;;;;7.37;4.60;;;6.10;99.90;;;;;;5017726;28;20477;-64
2023/12/05 04:12:55;;;;;;;6.40;4.87;;;6.20;99.90;;;;;;5013865;28;20741;-64
2023/12/05 04:15:21;;;;;;;7.30;5.10;;;6.20;99.90;;;;;;5016085;28;20191;-64
2023/12/05 04:17:46;;;;;;;7.03;4.30;;;6.30;99.90;;;;;;5012881;28;20188;-65
2023/12/05 04:20:12;;;;;;;10.23;5.70;;;6.20;99.90;;;;;;5014724;28;20184;-64
2023/12/05 04:22:38;;;;;;;7.83;5.07;;;6.20;99.90;;;;;;5013082;28;20184;-65
2023/12/05 04:25:04;;;;;;;6.60;4.63;;;6.30;99.90;;;;;;5019130;28;20582;-65
2023/12/05 04:27:30;;;;;;;5.87;4.33;;;6.30;99.90;;;;;;5021820;28;20655;-65
2023/12/05 04:29:55;;;;;;;4.30;3.50;;;6.30;99.90;;;;;;5018977;28;20434;-65
2023/12/05 04:32:21;;;;;;;5.33;2.97;;;6.40;99.90;;;;;;5017118;28;20479;-65
2023/12/05 04:34:47;;;;;;;6.97;3.80;;;6.40;99.90;;;;;;5022761;28;20211;-65
2023/12/05 04:37:12;;;;;;;5.63;2.97;;;6.50;99.90;;;;;;5015467;28;20622;-65
2023/12/05 04:39:39;;;;;;;7.23;2.80;;;6.50;99.90;;;;;;5018730;28;20940;-65
2023/12/05 04:42:04;;;;;;;3.10;2.50;;;6.60;99.90;;;;;;5023471;28;20195;-65
2023/12/05 04:44:30;;;;;;;3.47;2.30;;;6.70;99.90;;;;;;5014501;28;20460;-65
2023/12/05 04:47:03;;;;;;;3.43;2.00;;;6.80;99.90;;;;;;5025123;28;20211;-65
2023/12/05 04:49:30;;;;;;;2.90;1.90;;;6.90;99.90;;;;;;5020472;28;20411;-65
2023/12/05 04:51:55;;;;;;;3.07;1.60;;;7.00;99.90;;;;;;5015782;28;20840;-65
2023/12/05 04:54:21;;;;;;;3.77;1.67;;;7.00;99.90;;;;;;5021797;28;20438;-65
2023/12/05 04:56:47;;;;;;;2.80;1.67;;;7.10;99.90;;;;;;5026361;28;20323;-65
2023/12/05 04:59:12;;;;;;;8.00;1.77;;;7.10;99.90;;;;;;5023194;28;20187;-65
2023/12/05 05:01:38;;;;;;;2.83;1.67;;;7.20;99.90;;;;;;5018937;28;20216;-65
2023/12/05 05:04:04;;;;;;;2.60;1.53;;;7.10;99.90;;;;;;5031101;28;20265;-65
2023/12/05 05:06:29;;;;;;;2.73;1.40;;;7.20;99.90;;;;;;5024329;28;20445;-64
2023/12/05 05:08:55;;;;;;;4.13;1.70;;;7.30;99.90;;;;;;5025002;28;20568;-65
2023/12/05 05:11:20;;;;;;;4.50;1.80;;;7.30;99.90;;;;;;5021633;28;20197;-65
2023/12/05 05:13:46;;;;;;;3.10;1.70;;;7.40;99.90;;;;;;5019634;28;20217;-65
2023/12/05 05:16:11;;;;;;;3.83;1.80;;;7.30;99.90;;;;;;5024375;28;20203;-65
2023/12/05 05:18:37;;;;;;;2.77;1.73;;;7.30;99.90;;;;;;5020393;28;20185;-64
2023/12/05 05:21:06;;;;;;;5.27;1.93;;;7.40;99.90;;;;;;5022001;28;20176;-65
2023/12/05 05:23:33;;;;;;;2.53;1.57;;;7.40;99.90;;;;;;5020476;28;20808;-65
2023/12/05 05:25:58;;;;;;;3.37;1.60;;;7.50;99.90;;;;;;5021312;28;20452;-65
2023/12/05 05:28:24;;;;;;;2.20;1.50;;;7.50;99.90;;;;;;5019584;28;20431;-65
2023/12/05 05:30:54;;;;;;;4.30;1.60;;;7.60;99.90;;;;;;5020756;28;20193;-65
2023/12/05 05:33:23;;;;;;;4.43;1.50;;;7.60;99.90;;;;;;5019259;28;20620;-65
2023/12/05 05:35:48;;;;;;;3.60;1.50;;;7.60;99.90;;;;;;5018177;28;20423;-64
2023/12/05 05:38:14;;;;;;;3.30;1.27;;;7.60;99.90;;;;;;5019955;28;20416;-65
2023/12/05 05:40:42;;;;;;;2.87;1.60;;;7.60;99.90;;;;;;5017233;28;20193;-65
2023/12/05 05:43:08;;;;;;;2.37;1.40;;;7.60;99.90;;;;;;5021965;28;20265;-65
2023/12/05 05:45:34;;;;;;;3.30;2.00;;;7.70;99.90;;;;;;5020349;28;20419;-65
2023/12/05 05:48:00;;;;;;;2.77;1.50;;;7.70;99.90;;;;;;5012129;28;20276;-65
2023/12/05 05:50:25;;;;;;;3.47;1.83;;;7.80;99.90;;;;;;5016586;28;20200;-65
2023/12/05 05:52:51;;;;;;;2.97;1.53;;;7.80;99.90;;;;;;5019169;28;20849;-64
2023/12/05 05:55:18;;;;;;;3.13;1.50;;;7.80;99.90;;;;;;5021131;28;20195;-65
2023/12/05 05:57:44;;;;;;;2.70;1.43;;;7.80;99.90;;;;;;5014389;28;20185;-65
2023/12/05 06:00:10;;;;;;;3.77;1.63;;;7.80;99.90;;;;;;5016981;28;20428;-64
2023/12/05 06:02:36;;;;;;;4.00;1.50;;;7.80;99.90;;;;;;5021391;28;20193;-64
2023/12/05 06:05:02;;;;;;;2.80;1.67;;;7.90;99.90;;;;;;5020401;28;20455;-65
2023/12/05 06:07:28;;;;;;;4.57;1.70;;;7.90;99.90;;;;;;5018656;28;20197;-65
2023/12/05 06:09:53;;;;;;;2.90;1.70;;;7.90;99.90;;;;;;5019477;28;20233;-65
2023/12/05 06:12:19;;;;;;;3.10;1.80;;;7.80;99.90;;;;;;5016645;28;20219;-65
2023/12/05 06:14:44;;;;;;;4.50;1.80;;;7.90;99.90;;;;;;5016096;28;20204;-65
2023/12/05 06:17:10;;;;;;;5.57;1.80;;;7.90;99.90;;;;;;5019231;28;20193;-65
2023/12/05 06:19:35;;;;;;;4.10;1.50;;;8.00;99.90;;;;;;5018374;28;20179;-65
2023/12/05 06:22:01;;;;;;;3.80;1.30;;;7.90;99.90;;;;;;5017937;28;20188;-65
2023/12/05 06:24:27;;;;;;;3.30;1.40;;;8.00;99.90;;;;;;5016409;28;20218;-64
2023/12/05 06:26:52;;;;;;;5.60;1.60;;;8.00;99.90;;;;;;5017778;28;20650;-65
2023/12/05 06:29:18;;;;;;;2.93;1.47;;;8.00;99.90;;;;;;5019582;28;20196;-65
2023/12/05 06:31:44;;;;;;;5.10;1.33;;;8.00;99.90;;;;;;5020336;28;20185;-65
2023/12/05 06:34:10;;;;;;;2.43;1.40;;;8.00;99.90;;;;;;5015592;28;20840;-65
2023/12/05 06:36:36;;;;;;;2.30;1.50;;;8.00;99.90;;;;;;5015777;28;20338;-65
2023/12/05 06:39:02;;;;;;;3.20;1.70;;;8.00;99.90;;;;;;5016838;28;20237;-65
2023/12/05 06:41:27;;;;;;;6.40;1.90;;;8.10;99.90;;;;;;5017712;28;20188;-65
2023/12/05 06:43:53;;;;;;;4.83;1.63;;;8.10;99.90;;;;;;5016351;28;20457;-65
2023/12/05 06:46:18;;;;;;;2.87;1.60;;;8.10;99.90;;;;;;5018096;28;20252;-65
2023/12/05 06:48:44;;;;;;;2.10;1.37;;;8.10;99.90;;;;;;5016482;28;20568;-65
2023/12/05 06:51:17;;;;;;;3.67;2.17;;;8.20;99.90;;;;;;5016852;28;20714;-65
2023/12/05 06:53:42;;;;;;;2.40;1.40;;;8.20;99.90;;;;;;5019100;28;20201;-65
2023/12/05 06:56:12;;;;;;;2.90;1.73;;;8.20;99.90;;;;;;5021645;28;20423;-65
2023/12/05 06:58:38;;;;;;;7.27;1.97;;;8.10;99.90;;;;;;5018402;28;20226;-65
2023/12/05 07:01:03;;;;;;;6.53;2.20;;;8.20;99.90;;;;;;5018780;28;20818;-65
2023/12/05 07:03:29;;;;;;;8.43;2.00;;;8.20;99.90;;;;;;5020183;28;20205;-65
2023/12/05 07:05:55;;;;;;;3.50;2.50;;;8.20;99.90;;;;;;5011588;28;20192;-65
2023/12/05 07:08:21;;;;;;;4.17;1.80;;;8.20;99.90;;;;;;5017150;28;20212;-65
2023/12/05 07:10:46;;;;;;;4.00;1.80;;;8.20;99.90;;;;;;5017050;28;20640;-64
2023/12/05 07:13:12;;;;;;;4.73;1.53;;;8.20;99.90;;;;;;5018316;28;20475;-65
2023/12/05 07:15:37;;;;;;;2.53;1.87;;;8.20;99.90;;;;;;5020318;28;20180;-65
2023/12/05 07:18:03;;;;;;;2.80;1.40;;;8.20;99.90;;;;;;5010776;28;20181;-65
2023/12/05 07:20:29;;;;;;;4.83;1.83;;;8.20;99.90;;;;;;5024596;28;20267;-65
2023/12/05 07:22:54;;;;;;;4.00;1.40;;;8.30;99.90;;;;;;5019139;28;20292;-65
2023/12/05 07:25:20;;;;;;;2.67;1.53;;;8.30;99.90;;;;;;5020842;28;20212;-65
2023/12/05 07:27:45;;;;;;;4.67;1.60;;;8.30;99.90;;;;;;5015152;28;20211;-64
2023/12/05 07:30:11;;;;;;;6.17;2.17;;;8.30;99.90;;;;;;5014570;28;20188;-65
2023/12/05 07:32:37;;;;;;;2.50;1.50;;;8.30;99.90;;;;;;5014675;28;20231;-65
2023/12/05 07:35:03;;;;;;;3.07;1.97;;;8.40;99.90;;;;;;5014356;28;20560;-65
2023/12/05 07:37:28;;;;;;;3.20;1.50;;;8.30;99.90;;;;;;5012161;28;20268;-65
2023/12/05 07:39:54;;;;;;;7.43;3.73;;;8.30;99.90;;;;;;5010691;28;20543;-65
2023/12/05 07:42:20;;;;;;;4.33;1.80;;;8.40;99.90;;;;;;5014871;28;20220;-66
2023/12/05 07:44:45;;;;;;;3.03;1.70;;;8.40;99.90;;;;;;5017902;28;20211;-65
2023/12/05 07:47:11;;;;;;;4.50;1.80;;;8.40;99.90;;;;;;5013539;28;20197;-65
2023/12/05 07:49:37;;;;;;;3.30;1.23;;;8.40;99.90;;;;;;5020154;28;20181;-65
2023/12/05 07:52:04;;;;;;;3.50;1.40;;;8.40;99.90;;;;;;5013807;28;20468;-65
2023/12/05 07:54:29;;;;;;;3.00;1.50;;;8.40;99.90;;;;;;5022642;28;20196;-66
2023/12/05 07:56:55;;;;;;;4.80;2.27;;;8.30;99.90;;;;;;5012161;28;20943;-65
2023/12/05 07:59:21;;;;;;;5.73;1.83;;;8.30;99.90;;;;;;5016832;28;20184;-65
2023/12/05 08:01:46;;;;;;;2.80;1.60;;;8.30;99.90;;;;;;5014612;28;20220;-65
2023/12/05 08:04:12;;;;;;;3.67;1.93;;;8.30;99.90;;;;;;5020639;28;20614;-65
2023/12/05 08:06:38;;;;;;;5.17;1.80;;;8.30;99.90;;;;;;5024529;28;20737;-65
2023/12/05 08:09:03;;;;;;;4.00;1.40;;;8.30;99.90;;;;;;5027177;28;20279;-65
2023/12/05 08:11:29;;;;;;;13.87;3.50;;;8.40;99.90;;;;;;5024304;28;20829;-68
2023/12/05 08:13:54;;;;;;;4.77;1.57;;;8.40;99.90;;;;;;5024159;28;20212;-64
2023/12/05 08:16:20;;;;;;;5.17;1.87;;;8.40;99.90;;;;;;5025879;28;20172;-64
2023/12/05 08:18:46;;;;;;;3.00;1.57;;;8.50;99.90;;;;;;5020949;28;20176;-65
2023/12/05 08:21:12;;;;;;;3.73;1.67;;;8.60;99.90;;;;;;5021075;28;20848;-65
2023/12/05 08:23:38;;;;;;;4.23;1.80;;;8.50;99.90;;;;;;5020615;28;20423;-65
2023/12/05 08:26:04;;;;;;;2.40;1.60;;;8.50;99.90;;;;;;5021948;28;20440;-65
2023/12/05 08:28:30;;;;;;;3.90;2.10;;;8.60;99.90;;;;;;5027236;28;20183;-65
2023/12/05 08:30:56;;;;;;;5.30;1.90;;;8.60;99.90;;;;;;5024285;28;20539;-65
2023/12/05 08:33:22;;;;;;;3.73;1.50;;;8.60;99.90;;;;;;5025750;28;20212;-65
2023/12/05 08:35:47;;;;;;;5.80;1.70;;;8.70;99.90;;;;;;5025928;28;20230;-64
2023/12/05 08:38:13;;;;;;;4.17;2.00;;;8.60;99.90;;;;;;5020823;28;20423;-64
2023/12/05 08:40:38;;;;;;;2.43;1.40;;;8.60;99.90;;;;;;5016026;28;20234;-65
2023/12/05 08:43:04;;;;;;;4.53;1.80;;;8.60;99.90;;;;;;5023134;28;20228;-65
2023/12/05 08:45:30;;;;;;;2.80;1.53;;;8.60;99.90;;;;;;5021508;28;20219;-65
2023/12/05 08:47:56;;;;;;;3.33;1.70;;;8.70;99.90;;;;;;5020391;28;20450;-64
2023/12/05 08:50:21;;;;;;;3.70;1.60;;;8.70;99.90;;;;;;5020361;28;20211;-65
2023/12/05 08:52:47;;;;;;;4.97;1.90;;;8.70;99.90;;;;;;5017795;28;20205;-65
2023/12/05 08:55:14;;;;;;;3.10;1.87;;;8.80;99.90;;;;;;5020561;28;20435;-65
2023/12/05 08:57:40;;;;;;;2.30;1.40;;;8.80;99.90;;;;;;5020346;28;20762;-66
2023/12/05 09:00:06;;;;;;;2.50;1.60;;;8.80;99.90;;;;;;5019018;28;20418;-65
2023/12/05 09:02:32;;;;;;;4.47;1.80;;;8.80;99.90;;;;;;5018219;28;20617;-65
2023/12/05 09:04:58;;;;;;;4.30;1.87;;;8.80;99.90;;;;;;5022184;28;20490;-65
2023/12/05 09:07:23;;;;;;;3.20;1.40;;;8.80;99.90;;;;;;5017646;28;20431;-64
2023/12/05 09:09:49;;;;;;;3.87;1.90;;;8.90;99.90;;;;;;5020905;28;20177;-65
2023/12/05 09:12:15;;;;;;;3.67;1.50;;;8.90;99.90;;;;;;5021305;28;20212;-64
2023/12/05 09:14:40;;;;;;;4.77;1.70;;;9.00;99.90;;;;;;5013899;28;20281;-66
2023/12/05 09:17:09;;;;;;;3.37;1.70;;;9.20;99.90;;;;;;5018228;28;20195;-64
2023/12/05 09:19:35;;;;;;;3.70;1.60;;;9.30;99.90;;;;;;5021785;28;20246;-64
2023/12/05 09:22:00;;;;;;;3.63;1.37;;;9.30;99.90;;;;;;5017023;28;20479;-65
2023/12/05 09:24:26;;;;;;;3.83;1.47;;;9.40;99.90;;;;;;5023717;28;20471;-65
2023/12/05 09:26:52;;;;;;;3.77;1.80;;;9.40;99.90;;;;;;5015949;28;20214;-64
2023/12/05 09:29:18;;;;;;;3.90;1.80;;;9.50;99.90;;;;;;5021379;28;20419;-66
2023/12/05 09:31:43;;;;;;;4.50;1.70;;;9.40;99.90;;;;;;5019182;28;20195;-66
2023/12/05 09:34:09;;;;;;;3.50;1.60;;;9.40;99.90;;;;;;5015811;28;20322;-66
2023/12/05 09:36:34;;;;;;;4.77;1.50;;;9.40;99.90;;;;;;5021918;28;20227;-66
2023/12/05 09:39:00;;;;;;;8.90;2.03;;;9.40;99.90;;;;;;5016885;28;20193;-66
2023/12/05 09:41:27;;;;;;;5.03;1.70;;;9.40;99.90;;;;;;5020635;28;20188;-65
2023/12/05 09:43:54;;;;;;;5.47;1.63;;;9.40;99.90;;;;;;5020209;28;20236;-65
2023/12/05 09:46:25;;;;;;;4.43;1.53;;;9.40;99.90;;;;;;5017852;28;20423;-66
2023/12/05 09:48:55;;;;;;;2.97;1.50;;;9.40;99.90;;;;;;5018659;28;20924;-66
2023/12/05 09:51:22;;;;;;;3.97;1.50;;;9.40;99.90;;;;;;5027434;28;20504;-66
2023/12/05 09:53:48;;;;;;;6.27;1.70;;;9.30;99.90;;;;;;5021282;28;20506;-65
2023/12/05 09:56:14;;;;;;;3.50;1.40;;;9.30;99.90;;;;;;5015610;28;20418;-66
2023/12/05 09:58:45;;;;;;;3.30;1.63;;;9.20;99.90;;;;;;5027095;28;20829;-65
2023/12/05 10:01:22;;;;;;;3.80;1.50;;;9.30;99.90;;;;;;5014493;28;20440;-65
2023/12/05 10:03:54;;;;;;;2.73;1.60;;;9.30;99.90;;;;;;5026605;28;20544;-67
2023/12/05 10:06:20;;;;;;;3.63;1.60;;;9.20;99.90;;;;;;5026280;28;20413;-65
2023/12/05 10:08:50;;;;;;;4.83;1.50;;;9.10;99.90;;;;;;5022235;28;20427;-65
2023/12/05 10:11:17;;;;;;;4.70;1.60;;;9.20;99.90;;;;;;5019731;28;20439;-65
2023/12/05 10:13:44;;;;;;;1.93;1.27;;;9.10;99.90;;;;;;5021853;28;20502;-65
2023/12/05 10:16:10;;;;;;;3.00;1.50;;;9.10;99.90;;;;;;5029176;28;20425;-66
2023/12/05 10:18:37;;;;;;;3.30;1.70;;;9.10;99.90;;;;;;5018850;28;20427;-66
2023/12/05 10:21:03;;;;;;;5.37;1.47;;;9.10;99.90;;;;;;5021708;28;20489;-66
2023/12/05 10:23:29;;;;;;;3.30;1.30;;;9.10;99.90;;;;;;5015416;28;21015;-66
2023/12/05 10:25:54;;;;;;;2.20;1.20;;;9.10;99.90;;;;;;5016962;28;20482;-66
2023/12/05 10:28:20;;;;;;;3.60;1.70;;;9.20;99.90;;;;;;5018953;28;20255;-67
2023/12/05 10:30:45;;;;;;;3.63;1.30;;;9.10;99.90;;;;;;5017092;28;20180;-68
2023/12/05 10:33:16;;;;;;;2.80;1.50;;;9.10;99.90;;;;;;5022257;28;20223;-65
2023/12/05 10:35:42;;;;;;;2.47;1.53;;;9.10;99.90;;;;;;5015446;28;20173;-65
2023/12/05 10:38:20;;;;;;;5.00;1.60;;;9.10;99.90;;;;;;5013729;28;20434;-65
2023/12/05 10:40:55;;;;;;;3.07;1.50;;;9.10;99.90;;;;;;5019505;28;20422;-66
2023/12/05 10:43:26;;;;;;;3.90;1.80;;;9.00;99.90;;;;;;5020158;28;20565;-65
2023/12/05 10:45:52;;;;;;;3.70;1.57;;;9.00;99.90;;;;;;5013698;28;20439;-65
2023/12/05 10:48:18;;;;;;;2.83;1.60;;;9.00;99.90;;;;;;5020440;28;21035;-65
2023/12/05 10:50:47;;;;;;;3.60;1.57;;;9.00;99.90;;;;;;5020976;28;20491;-65
2023/12/05 10:53:14;;;;;;;2.07;1.53;;;9.00;99.90;;;;;;5021432;28;20475;-65
2023/12/05 10:55:40;;;;;;;2.63;1.40;;;9.10;99.90;;;;;;5021018;28;20751;-65
2023/12/05 10:58:07;;;;;;;2.67;1.43;;;9.00;99.90;;;;;;5018870;28;20541;-65
2023/12/05 11:00:34;;;;;;;3.17;1.63;;;9.00;99.90;;;;;;5016924;28;20447;-66
2023/12/05 11:03:03;;;;;;;2.73;1.47;;;9.00;99.90;;;;;;5020723;28;21049;-66
2023/12/05 11:05:31;;;;;;;2.10;1.30;;;9.10;99.90;;;;;;5023595;28;20968;-66
2023/12/05 11:07:57;;;;;;;3.90;1.63;;;9.20;99.90;;;;;;5020404;28;20465;-65
2023/12/05 11:10:24;;;;;;;2.07;1.40;;;9.10;99.90;;;;;;5026237;28;20430;-64
2023/12/05 11:12:50;;;;;;;2.77;1.47;;;9.20;99.90;;;;;;5019400;28;20463;-65
2023/12/05 11:15:20;;;;;;;2.83;1.33;;;9.20;99.90;;;;;;5018008;28;20454;-64
2023/12/05 11:17:53;;;;;;;2.93;1.50;;;9.20;99.90;;;;;;5018623;28;21269;-64
2023/12/05 11:20:22;;;;;;;2.30;1.50;;;9.30;99.90;;;;;;5016310;28;21035;-65
2023/12/05 11:22:47;;;;;;;3.07;1.50;;;9.30;99.90;;;;;;5013509;28;20529;-64
2023/12/05 11:25:35;;;;;;;4.43;1.63;;;9.30;99.90;;;;;;5022340;28;20790;-64
2023/12/05 11:28:18;;;;;;;2.10;1.40;;;9.40;99.90;;;;;;5017199;28;20318;-64
2023/12/05 11:30:47;;;;;;;2.90;1.53;;;9.40;99.90;;;;;;5017001;28;20443;-64
2023/12/05 11:33:37;;;;;;;3.10;2.00;;;9.40;99.90;;;;;;5017226;28;20530;-65
2023/12/05 11:36:40;;;;;;;3.13;1.60;;;9.50;99.90;;;;;;5014472;28;20423;-65
2023/12/05 11:39:06;;;;;;;2.40;1.40;;;9.50;99.90;;;;;;5016011;28;20526;-64
2023/12/05 11:41:32;;;;;;;4.43;1.50;;;9.60;99.90;;;;;;5019564;28;21094;-65
2023/12/05 11:44:13;;;;;;;3.73;1.93;;;9.40;99.90;;;;;;5012581;28;20972;-65
2023/12/05 11:46:48;;;;;;;3.20;1.70;;;9.50;99.90;;;;;;5017302;28;20921;-64
2023/12/05 11:49:37;;;;;;;3.30;1.70;;;9.50;99.90;;;;;;5014785;28;20455;-65
2023/12/05 11:52:12;;;;;;;3.73;1.80;;;9.50;99.90;;;;;;5016669;28;20826;-66
2023/12/05 11:54:42;;;;;;;2.55;1.90;;;9.50;99.90;;;;;;5021344;28;20504;-66
2023/12/05 11:57:12;;;;;;;4.93;1.50;;;9.60;99.90;;;;;;5012485;28;20177;-64
2023/12/05 11:59:40;;;;;;;2.40;1.50;;;9.40;99.90;;;;;;5011160;28;20486;-65
2023/12/05 12:02:06;;;;;;;2.47;1.40;;;9.50;99.90;;;;;;5017385;28;20430;-65
2023/12/05 12:04:32;;;;;;;2.20;1.20;;;9.50;99.90;;;;;;5017562;28;20500;-65
2023/12/05 12:06:58;;;;;;;2.70;2.00;;;9.60;99.90;;;;;;5015130;28;20432;-65
2023/12/05 12:09:24;;;;;;;3.43;1.60;;;9.60;99.90;;;;;;5017287;28;20169;-65
2023/12/05 12:11:50;;;;;;;3.10;1.60;;;9.60;99.90;;;;;;5019406;28;20454;-65
2023/12/05 12:14:18;;;;;;;3.00;1.70;;;9.70;99.90;;;;;;5013992;28;20897;-65
2023/12/05 12:16:46;;;;;;;2.40;1.50;;;9.70;99.90;;;;;;5012566;28;20586;-65
2023/12/05 12:19:12;;;;;;;3.67;1.60;;;9.70;99.90;;;;;;5017407;28;20469;-65
2023/12/05 12:21:38;;;;;;;6.33;2.07;;;9.60;99.90;;;;;;5011421;28;20436;-65
2023/12/05 12:24:04;;;;;;;5.67;1.50;;;9.60;99.90;;;;;;5014614;28;20188;-65
2023/12/05 12:26:32;;;;;;;2.10;1.30;;;9.70;99.90;;;;;;5015450;28;20420;-67
2023/12/05 12:29:08;;;;;;;4.67;2.00;;;9.80;99.90;;;;;;5016905;28;20492;-66
2023/12/05 12:31:35;;;;;;;5.03;1.80;;;9.90;99.90;;;;;;5014460;28;20438;-65
2023/12/05 12:34:02;;;;;;;4.50;2.07;;;9.80;99.90;;;;;;5017899;28;20469;-65
2023/12/05 12:36:29;;;;;;;3.50;1.60;;;9.90;99.90;;;;;;5014268;28;20506;-65
2023/12/05 12:38:56;;;;;;;7.00;1.70;;;9.90;99.90;;;;;;5012397;28;20782;-65
2023/12/05 12:41:21;;;;;;;5.87;2.17;;;9.80;99.90;;;;;;5011540;28;20729;-65
2023/12/05 12:43:47;;;;;;;6.83;2.07;;;9.70;99.90;;;;;;5014671;28;20444;-65
2023/12/05 12:46:13;;;;;;;4.90;2.30;;;9.70;99.90;;;;;;5016314;28;20223;-67
2023/12/05 12:48:39;;;;;;;4.70;1.70;;;9.70;99.90;;;;;;5011017;28;20316;-66